sensor_id;sensor_type;location;lat;lon;timestamp;pressure;altitude;pressure_sealevel;temperature;humidity
60087;BME280;45960;53.630;55.972;2023-08-30T00:00:25;98507.22;;;14.41;62.46
60087;BME280;45960;53.630;55.972;2023-08-30T00:01:44;98496.31;;;14.34;62.66
60087;BME280;45960;53.630;55.972;2023-08-30T00:03:04;98505.69;;;14.22;62.70
60087;BME280;45960;53.630;55.972;2023-08-30T00:04:24;98506.03;;;14.19;62.92
60087;BME280;45960;53.630;55.972;2023-08-30T00:05:43;98507.38;;;14.15;63.16
60087;BME280;45960;53.630;55.972;2023-08-30T00:07:03;98509.22;;;14.06;63.15
60087;BME280;45960;53.630;55.972;2023-08-30T00:08:23;98512.41;;;14.01;63.20
60087;BME280;45960;53.630;55.972;2023-08-30T00:09:43;98516.41;;;13.97;63.44
60087;BME280;45960;53.630;55.972;2023-08-30T00:11:02;98513.41;;;13.92;63.65
60087;BME280;45960;53.630;55.972;2023-08-30T00:12:24;98523.59;;;13.88;63.69
60087;BME280;45960;53.630;55.972;2023-08-30T00:13:43;98514.03;;;13.86;63.87
60087;BME280;45960;53.630;55.972;2023-08-30T00:15:03;98518.06;;;13.82;63.96
60087;BME280;45960;53.630;55.972;2023-08-30T00:16:23;98514.88;;;13.78;64.02
60087;BME280;45960;53.630;55.972;2023-08-30T00:17:42;98511.66;;;13.75;64.09
60087;BME280;45960;53.630;55.972;2023-08-30T00:19:03;98509.97;;;13.74;64.21
60087;BME280;45960;53.630;55.972;2023-08-30T00:20:23;98524.41;;;13.73;64.27
60087;BME280;45960;53.630;55.972;2023-08-30T00:21:42;98509.94;;;13.65;64.27
60087;BME280;45960;53.630;55.972;2023-08-30T00:23:02;98511.66;;;13.75;64.26
60087;BME280;45960;53.630;55.972;2023-08-30T00:24:22;98514.34;;;13.75;64.17
60087;BME280;45960;53.630;55.972;2023-08-30T00:25:42;98521.22;;;13.77;64.12
60087;BME280;45960;53.630;55.972;2023-08-30T00:27:02;98522.06;;;13.78;64.07
60087;BME280;45960;53.630;55.972;2023-08-30T00:28:21;98523.44;;;13.82;64.06
60087;BME280;45960;53.630;55.972;2023-08-30T00:29:41;98526.78;;;13.84;64.09
60087;BME280;45960;53.630;55.972;2023-08-30T00:31:01;98522.63;;;13.90;64.08
60087;BME280;45960;53.630;55.972;2023-08-30T00:32:20;98529.16;;;13.95;63.90
60087;BME280;45960;53.630;55.972;2023-08-30T00:33:40;98527.50;;;14.02;63.76
60087;BME280;45960;53.630;55.972;2023-08-30T00:35:00;98516.25;;;14.07;63.55
60087;BME280;45960;53.630;55.972;2023-08-30T00:36:19;98517.78;;;14.18;63.15
60087;BME280;45960;53.630;55.972;2023-08-30T00:37:39;98528.56;;;14.26;62.93
60087;BME280;45960;53.630;55.972;2023-08-30T00:38:59;98513.63;;;14.31;62.97
60087;BME280;45960;53.630;55.972;2023-08-30T00:40:23;98505.03;;;14.36;62.69
60087;BME280;45960;53.630;55.972;2023-08-30T00:41:43;98508.06;;;14.41;62.57
60087;BME280;45960;53.630;55.972;2023-08-30T00:43:03;98507.72;;;14.44;62.44
60087;BME280;45960;53.630;55.972;2023-08-30T00:44:23;98514.47;;;14.48;62.42
60087;BME280;45960;53.630;55.972;2023-08-30T00:45:42;98513.28;;;14.51;62.23
60087;BME280;45960;53.630;55.972;2023-08-30T00:47:02;98512.97;;;14.54;62.14
60087;BME280;45960;53.630;55.972;2023-08-30T00:48:22;98513.47;;;14.58;62.12
60087;BME280;45960;53.630;55.972;2023-08-30T00:49:42;98506.09;;;14.60;61.93
60087;BME280;45960;53.630;55.972;2023-08-30T00:51:01;98509.41;;;14.62;61.99
60087;BME280;45960;53.630;55.972;2023-08-30T00:52:21;98511.13;;;14.63;61.81
60087;BME280;45960;53.630;55.972;2023-08-30T00:53:40;98514.50;;;14.65;61.97
60087;BME280;45960;53.630;55.972;2023-08-30T00:55:00;98503.72;;;14.65;61.71
60087;BME280;45960;53.630;55.972;2023-08-30T00:56:20;98508.78;;;14.68;61.83
60087;BME280;45960;53.630;55.972;2023-08-30T00:57:40;98505.06;;;14.69;61.63
60087;BME280;45960;53.630;55.972;2023-08-30T00:59:00;98516.84;;;14.68;61.55
60087;BME280;45960;53.630;55.972;2023-08-30T01:00:19;98506.22;;;14.66;61.56
60087;BME280;45960;53.630;55.972;2023-08-30T01:01:40;98512.78;;;14.64;61.63
60087;BME280;45960;53.630;55.972;2023-08-30T01:03:00;98513.13;;;14.61;61.58
60087;BME280;45960;53.630;55.972;2023-08-30T01:04:20;98510.78;;;14.58;61.56
60087;BME280;45960;53.630;55.972;2023-08-30T01:05:41;98508.09;;;14.58;61.69
60087;BME280;45960;53.630;55.972;2023-08-30T01:07:00;98511.81;;;14.57;61.68
60087;BME280;45960;53.630;55.972;2023-08-30T01:08:21;98509.28;;;14.55;61.63
60087;BME280;45960;53.630;55.972;2023-08-30T01:09:40;98511.13;;;14.54;61.86
60087;BME280;45960;53.630;55.972;2023-08-30T01:11:24;98511.63;;;14.58;61.64
60087;BME280;45960;53.630;55.972;2023-08-30T01:12:52;98520.50;;;14.59;61.48
60087;BME280;45960;53.630;55.972;2023-08-30T01:14:25;98518.50;;;14.61;61.41
60087;BME280;45960;53.630;55.972;2023-08-30T01:15:48;98514.63;;;14.63;61.44
60087;BME280;45960;53.630;55.972;2023-08-30T01:17:10;98517.34;;;14.63;61.51
60087;BME280;45960;53.630;55.972;2023-08-30T01:18:36;98515.13;;;14.67;61.25
60087;BME280;45960;53.630;55.972;2023-08-30T01:20:06;98512.44;;;14.59;61.07
60087;BME280;45960;53.630;55.972;2023-08-30T01:28:13;98526.41;;;14.62;61.15
60087;BME280;45960;53.630;55.972;2023-08-30T01:29:40;98534.78;;;14.67;60.97
60087;BME280;45960;53.630;55.972;2023-08-30T01:31:02;98537.66;;;14.66;61.04
60087;BME280;45960;53.630;55.972;2023-08-30T01:32:22;98534.28;;;14.64;60.99
60087;BME280;45960;53.630;55.972;2023-08-30T01:33:45;98538.00;;;14.63;60.94
60087;BME280;45960;53.630;55.972;2023-08-30T01:35:06;98535.66;;;14.60;60.86
60087;BME280;45960;53.630;55.972;2023-08-30T01:36:27;98543.38;;;14.63;60.92
60087;BME280;45960;53.630;55.972;2023-08-30T01:37:47;98535.47;;;14.61;60.94
60087;BME280;45960;53.630;55.972;2023-08-30T01:39:10;98547.22;;;14.60;61.14
60087;BME280;45960;53.630;55.972;2023-08-30T01:40:33;98549.75;;;14.62;60.90
60087;BME280;45960;53.630;55.972;2023-08-30T01:41:54;98548.41;;;14.66;60.81
60087;BME280;45960;53.630;55.972;2023-08-30T01:43:18;98550.59;;;14.70;60.68
60087;BME280;45960;53.630;55.972;2023-08-30T01:44:41;98552.75;;;14.75;60.63
60087;BME280;45960;53.630;55.972;2023-08-30T01:46:04;98543.38;;;14.79;60.46
60087;BME280;45960;53.630;55.972;2023-08-30T01:47:27;98546.69;;;14.81;60.38
60087;BME280;45960;53.630;55.972;2023-08-30T01:48:49;98547.72;;;14.80;60.19
60087;BME280;45960;53.630;55.972;2023-08-30T01:50:10;98557.97;;;14.85;60.25
60087;BME280;45960;53.630;55.972;2023-08-30T01:51:31;98549.72;;;14.86;60.42
60087;BME280;45960;53.630;55.972;2023-08-30T01:52:55;98551.44;;;14.87;60.03
60087;BME280;45960;53.630;55.972;2023-08-30T01:54:18;98545.38;;;14.85;60.06
60087;BME280;45960;53.630;55.972;2023-08-30T01:55:38;98550.41;;;14.80;60.26
60087;BME280;45960;53.630;55.972;2023-08-30T01:56:57;98546.06;;;14.71;60.16
60087;BME280;45960;53.630;55.972;2023-08-30T01:58:18;98553.44;;;14.69;59.98
60087;BME280;45960;53.630;55.972;2023-08-30T01:59:38;98542.69;;;14.69;60.13
60087;BME280;45960;53.630;55.972;2023-08-30T02:00:57;98552.59;;;14.68;60.24
60087;BME280;45960;53.630;55.972;2023-08-30T02:02:17;98552.28;;;14.71;60.04
60087;BME280;45960;53.630;55.972;2023-08-30T02:03:36;98550.25;;;14.73;60.05
60087;BME280;45960;53.630;55.972;2023-08-30T02:04:56;98560.69;;;14.76;59.90
60087;BME280;45960;53.630;55.972;2023-08-30T02:06:25;98555.78;;;14.80;59.88
60087;BME280;45960;53.630;55.972;2023-08-30T02:07:51;98550.06;;;14.83;59.94
60087;BME280;45960;53.630;55.972;2023-08-30T02:09:58;98557.78;;;14.86;59.70
60087;BME280;45960;53.630;55.972;2023-08-30T02:11:23;98551.75;;;14.84;59.72
60087;BME280;45960;53.630;55.972;2023-08-30T02:12:49;98539.31;;;14.83;59.68
60087;BME280;45960;53.630;55.972;2023-08-30T02:14:13;98540.97;;;14.84;59.73
60087;BME280;45960;53.630;55.972;2023-08-30T02:15:37;98553.25;;;14.87;59.77
60087;BME280;45960;53.630;55.972;2023-08-30T02:16:58;98543.53;;;14.86;59.70
60087;BME280;45960;53.630;55.972;2023-08-30T02:18:18;98542.34;;;14.88;59.73
60087;BME280;45960;53.630;55.972;2023-08-30T02:19:38;98544.00;;;14.89;59.72
60087;BME280;45960;53.630;55.972;2023-08-30T02:20:57;98541.50;;;14.88;59.72
60087;BME280;45960;53.630;55.972;2023-08-30T02:22:17;98546.06;;;14.87;59.74
60087;BME280;45960;53.630;55.972;2023-08-30T02:23:36;98549.38;;;14.89;59.67
60087;BME280;45960;53.630;55.972;2023-08-30T02:24:56;98544.84;;;14.90;59.59
60087;BME280;45960;53.630;55.972;2023-08-30T02:26:17;98546.00;;;14.95;59.46
60087;BME280;45960;53.630;55.972;2023-08-30T02:27:37;98548.69;;;14.95;59.37
60087;BME280;45960;53.630;55.972;2023-08-30T02:28:56;98550.72;;;15.10;59.08
60087;BME280;45960;53.630;55.972;2023-08-30T02:30:16;98552.03;;;15.14;58.89
60087;BME280;45960;53.630;55.972;2023-08-30T02:31:35;98553.41;;;15.18;58.92
60087;BME280;45960;53.630;55.972;2023-08-30T02:32:55;98550.03;;;15.16;58.92
60087;BME280;45960;53.630;55.972;2023-08-30T02:34:14;98561.75;;;15.23;58.75
60087;BME280;45960;53.630;55.972;2023-08-30T02:35:35;98560.09;;;15.22;58.61
60087;BME280;45960;53.630;55.972;2023-08-30T02:36:54;98555.41;;;15.24;58.87
60087;BME280;45960;53.630;55.972;2023-08-30T02:38:14;98552.34;;;15.27;58.79
60087;BME280;45960;53.630;55.972;2023-08-30T02:39:34;98552.00;;;15.30;58.76
60087;BME280;45960;53.630;55.972;2023-08-30T02:40:53;98553.69;;;15.31;58.58
60087;BME280;45960;53.630;55.972;2023-08-30T02:42:13;98552.00;;;15.30;58.50
60087;BME280;45960;53.630;55.972;2023-08-30T02:43:33;98548.28;;;15.31;58.32
60087;BME280;45960;53.630;55.972;2023-08-30T02:44:52;98551.66;;;15.33;58.42
60087;BME280;45960;53.630;55.972;2023-08-30T02:46:12;98554.00;;;15.36;58.34
60087;BME280;45960;53.630;55.972;2023-08-30T02:47:31;98560.53;;;15.42;58.36
60087;BME280;45960;53.630;55.972;2023-08-30T02:48:53;98559.34;;;15.44;58.26
60087;BME280;45960;53.630;55.972;2023-08-30T02:50:14;98552.31;;;15.43;58.22
60087;BME280;45960;53.630;55.972;2023-08-30T02:51:34;98549.44;;;15.45;58.12
60087;BME280;45960;53.630;55.972;2023-08-30T02:52:53;98559.00;;;15.48;58.14
60087;BME280;45960;53.630;55.972;2023-08-30T02:54:13;98554.31;;;15.50;57.94
60087;BME280;45960;53.630;55.972;2023-08-30T02:55:32;98549.91;;;15.49;57.81
60087;BME280;45960;53.630;55.972;2023-08-30T02:56:52;98555.97;;;15.51;57.78
60087;BME280;45960;53.630;55.972;2023-08-30T02:58:11;98548.38;;;15.54;57.94
60087;BME280;45960;53.630;55.972;2023-08-30T02:59:32;98550.75;;;15.57;57.86
60087;BME280;45960;53.630;55.972;2023-08-30T03:00:57;98555.94;;;15.59;57.79
60087;BME280;45960;53.630;55.972;2023-08-30T03:02:16;98548.91;;;15.58;57.75
60087;BME280;45960;53.630;55.972;2023-08-30T03:03:36;98555.94;;;15.59;57.58
60087;BME280;45960;53.630;55.972;2023-08-30T03:04:56;98548.22;;;15.56;57.67
60087;BME280;45960;53.630;55.972;2023-08-30T03:06:15;98551.41;;;15.59;57.72
60087;BME280;45960;53.630;55.972;2023-08-30T03:07:35;98545.84;;;15.61;57.73
60087;BME280;45960;53.630;55.972;2023-08-30T03:08:54;98546.53;;;15.63;57.66
60087;BME280;45960;53.630;55.972;2023-08-30T03:10:16;98554.59;;;15.63;57.51
60087;BME280;45960;53.630;55.972;2023-08-30T03:11:35;98552.75;;;15.63;57.54
60087;BME280;45960;53.630;55.972;2023-08-30T03:12:55;98557.28;;;15.63;57.65
60087;BME280;45960;53.630;55.972;2023-08-30T03:14:15;98559.97;;;15.63;57.48
60087;BME280;45960;53.630;55.972;2023-08-30T03:15:35;98555.59;;;15.62;57.63
60087;BME280;45960;53.630;55.972;2023-08-30T03:16:55;98560.13;;;15.61;57.74
60087;BME280;45960;53.630;55.972;2023-08-30T03:18:15;98553.56;;;15.64;57.67
60087;BME280;45960;53.630;55.972;2023-08-30T03:19:34;98558.97;;;15.64;57.54
60087;BME280;45960;53.630;55.972;2023-08-30T03:21:00;98555.94;;;15.59;57.53
60087;BME280;45960;53.630;55.972;2023-08-30T03:22:22;98547.53;;;15.54;57.63
60087;BME280;45960;53.630;55.972;2023-08-30T03:23:42;98555.28;;;15.49;57.64
60087;BME280;45960;53.630;55.972;2023-08-30T03:25:02;98563.53;;;15.55;57.47
60087;BME280;45960;53.630;55.972;2023-08-30T03:26:24;98569.91;;;15.54;57.58
60087;BME280;45960;53.630;55.972;2023-08-30T03:27:44;98569.06;;;15.54;57.50
60087;BME280;45960;53.630;55.972;2023-08-30T03:29:04;98572.78;;;15.53;57.67
60087;BME280;45960;53.630;55.972;2023-08-30T03:30:23;98567.06;;;15.56;57.63
60087;BME280;45960;53.630;55.972;2023-08-30T03:31:44;98572.56;;;15.62;57.54
60087;BME280;45960;53.630;55.972;2023-08-30T03:33:04;98567.38;;;15.69;57.36
60087;BME280;45960;53.630;55.972;2023-08-30T03:34:24;98565.84;;;15.75;57.20
60087;BME280;45960;53.630;55.972;2023-08-30T03:35:43;98571.72;;;15.78;57.31
60087;BME280;45960;53.630;55.972;2023-08-30T03:37:03;98568.66;;;15.81;56.84
60087;BME280;45960;53.630;55.972;2023-08-30T03:38:23;98582.28;;;15.88;56.90
60087;BME280;45960;53.630;55.972;2023-08-30T03:39:43;98568.63;;;15.89;56.80
60087;BME280;45960;53.630;55.972;2023-08-30T03:41:03;98570.56;;;16.04;56.90
60087;BME280;45960;53.630;55.972;2023-08-30T03:42:25;98571.56;;;16.11;56.43
60087;BME280;45960;53.630;55.972;2023-08-30T03:43:45;98565.44;;;16.17;56.26
60087;BME280;45960;53.630;55.972;2023-08-30T03:45:06;98561.38;;;16.21;55.86
60087;BME280;45960;53.630;55.972;2023-08-30T03:46:25;98564.38;;;16.26;56.03
60087;BME280;45960;53.630;55.972;2023-08-30T03:47:45;98567.75;;;16.28;55.73
60087;BME280;45960;53.630;55.972;2023-08-30T03:49:04;98564.00;;;16.29;55.80
60087;BME280;45960;53.630;55.972;2023-08-30T03:50:23;98560.31;;;16.30;55.83
60087;BME280;45960;53.630;55.972;2023-08-30T03:51:43;98562.00;;;16.31;55.51
60087;BME280;45960;53.630;55.972;2023-08-30T03:53:03;98568.72;;;16.36;55.49
60087;BME280;45960;53.630;55.972;2023-08-30T03:54:22;98564.63;;;16.40;55.50
60087;BME280;45960;53.630;55.972;2023-08-30T03:55:42;98572.66;;;16.48;55.40
60087;BME280;45960;53.630;55.972;2023-08-30T03:57:01;98573.97;;;16.52;54.96
60087;BME280;45960;53.630;55.972;2023-08-30T03:58:20;98575.66;;;16.53;54.99
60087;BME280;45960;53.630;55.972;2023-08-30T03:59:40;98573.06;;;16.60;54.96
60087;BME280;45960;53.630;55.972;2023-08-30T04:01:00;98575.88;;;16.66;54.73
60087;BME280;45960;53.630;55.972;2023-08-30T04:02:19;98574.50;;;16.70;54.75
60087;BME280;45960;53.630;55.972;2023-08-30T04:03:39;98561.66;;;16.81;54.22
60087;BME280;45960;53.630;55.972;2023-08-30T04:04:58;98564.28;;;16.89;54.47
60087;BME280;45960;53.630;55.972;2023-08-30T04:06:18;98569.41;;;16.98;54.19
60087;BME280;45960;53.630;55.972;2023-08-30T04:07:37;98557.41;;;17.01;53.86
60087;BME280;45960;53.630;55.972;2023-08-30T04:08:57;98568.44;;;17.14;53.89
60087;BME280;45960;53.630;55.972;2023-08-30T04:10:17;98569.72;;;17.18;54.01
60087;BME280;45960;53.630;55.972;2023-08-30T04:11:38;98571.28;;;17.13;53.84
60087;BME280;45960;53.630;55.972;2023-08-30T04:12:57;98571.56;;;17.03;54.08
60087;BME280;45960;53.630;55.972;2023-08-30T04:14:16;98560.66;;;16.96;54.31
60087;BME280;45960;53.630;55.972;2023-08-30T04:15:37;98571.72;;;16.87;54.29
60087;BME280;45960;53.630;55.972;2023-08-30T04:16:58;98569.25;;;16.77;54.43
60087;BME280;45960;53.630;55.972;2023-08-30T04:18:18;98574.31;;;16.72;54.32
60087;BME280;45960;53.630;55.972;2023-08-30T04:19:38;98573.84;;;16.68;54.43
60087;BME280;45960;53.630;55.972;2023-08-30T04:21:01;98568.81;;;16.65;54.41
60087;BME280;45960;53.630;55.972;2023-08-30T04:22:21;98566.84;;;16.59;54.51
60087;BME280;45960;53.630;55.972;2023-08-30T04:23:41;98573.59;;;16.55;54.73
60087;BME280;45960;53.630;55.972;2023-08-30T04:25:02;98571.94;;;16.54;54.81
60087;BME280;45960;53.630;55.972;2023-08-30T04:26:22;98579.00;;;16.55;54.98
60087;BME280;45960;53.630;55.972;2023-08-30T04:27:42;98568.94;;;16.49;54.75
60087;BME280;45960;53.630;55.972;2023-08-30T04:29:01;98577.81;;;16.58;54.71
60087;BME280;45960;53.630;55.972;2023-08-30T04:30:22;98575.25;;;16.64;54.85
60087;BME280;45960;53.630;55.972;2023-08-30T04:31:43;98581.09;;;16.68;54.67
60087;BME280;45960;53.630;55.972;2023-08-30T04:33:04;98578.88;;;16.71;54.59
60087;BME280;45960;53.630;55.972;2023-08-30T04:34:24;98581.56;;;16.71;54.46
60087;BME280;45960;53.630;55.972;2023-08-30T04:35:44;98572.94;;;16.76;54.51
60087;BME280;45960;53.630;55.972;2023-08-30T04:37:08;98578.19;;;16.77;54.33
60087;BME280;45960;53.630;55.972;2023-08-30T04:38:28;98566.06;;;16.73;54.18
60087;BME280;45960;53.630;55.972;2023-08-30T04:39:48;98559.47;;;16.76;54.20
60087;BME280;45960;53.630;55.972;2023-08-30T04:41:08;98563.31;;;16.82;54.11
60087;BME280;45960;53.630;55.972;2023-08-30T04:42:29;98562.22;;;16.91;53.88
60087;BME280;45960;53.630;55.972;2023-08-30T04:43:48;98559.09;;;17.02;53.82
60087;BME280;45960;53.630;55.972;2023-08-30T04:45:08;98562.53;;;17.11;53.62
60087;BME280;45960;53.630;55.972;2023-08-30T04:46:29;98564.69;;;17.15;53.28
60087;BME280;45960;53.630;55.972;2023-08-30T04:47:48;98564.69;;;17.15;53.30
60087;BME280;45960;53.630;55.972;2023-08-30T04:49:08;98563.03;;;17.14;53.12
60087;BME280;45960;53.630;55.972;2023-08-30T04:50:27;98555.94;;;17.13;53.43
60087;BME280;45960;53.630;55.972;2023-08-30T04:51:47;98566.72;;;17.13;53.39
60087;BME280;45960;53.630;55.972;2023-08-30T04:53:07;98572.13;;;17.13;53.24
60087;BME280;45960;53.630;55.972;2023-08-30T04:54:26;98565.22;;;17.11;53.44
60087;BME280;45960;53.630;55.972;2023-08-30T04:55:46;98561.69;;;17.10;53.39
60087;BME280;45960;53.630;55.972;2023-08-30T04:57:05;98554.66;;;17.09;53.50
60087;BME280;45960;53.630;55.972;2023-08-30T04:58:26;98561.69;;;17.10;53.58
60087;BME280;45960;53.630;55.972;2023-08-30T04:59:46;98548.41;;;17.09;53.52
60087;BME280;45960;53.630;55.972;2023-08-30T05:01:05;98561.69;;;17.10;53.69
60087;BME280;45960;53.630;55.972;2023-08-30T05:02:26;98563.03;;;17.14;53.75
60087;BME280;45960;53.630;55.972;2023-08-30T05:03:52;98567.31;;;17.23;53.57
60087;BME280;45960;53.630;55.972;2023-08-30T05:05:13;98561.16;;;17.30;53.51
60087;BME280;45960;53.630;55.972;2023-08-30T05:06:32;98568.22;;;17.31;53.25
60087;BME280;45960;53.630;55.972;2023-08-30T05:07:52;98580.72;;;17.32;53.19
60087;BME280;45960;53.630;55.972;2023-08-30T05:09:12;98575.78;;;17.35;53.12
60087;BME280;45960;53.630;55.972;2023-08-30T05:10:32;98570.47;;;17.42;53.00
60087;BME280;45960;53.630;55.972;2023-08-30T05:11:52;98569.91;;;17.47;52.84
60087;BME280;45960;53.630;55.972;2023-08-30T05:13:16;98568.63;;;17.57;52.60
60087;BME280;45960;53.630;55.972;2023-08-30T05:14:35;98585.00;;;17.71;52.42
60087;BME280;45960;53.630;55.972;2023-08-30T05:15:57;98577.91;;;17.70;52.14
60087;BME280;45960;53.630;55.972;2023-08-30T05:17:16;98576.25;;;17.68;52.08
60087;BME280;45960;53.630;55.972;2023-08-30T05:18:36;98579.63;;;17.71;52.01
60087;BME280;45960;53.630;55.972;2023-08-30T05:19:55;98573.72;;;17.67;51.88
60087;BME280;45960;53.630;55.972;2023-08-30T05:21:15;98577.91;;;17.70;52.07
60087;BME280;45960;53.630;55.972;2023-08-30T05:22:35;98586.69;;;17.72;52.04
60087;BME280;45960;53.630;55.972;2023-08-30T05:23:56;98582.31;;;17.71;52.08
60087;BME280;45960;53.630;55.972;2023-08-30T05:25:16;98586.03;;;17.70;52.00
60087;BME280;45960;53.630;55.972;2023-08-30T05:26:36;98581.28;;;17.72;52.18
60087;BME280;45960;53.630;55.972;2023-08-30T05:27:56;98584.25;;;17.77;52.02
60087;BME280;45960;53.630;55.972;2023-08-30T05:29:16;98590.06;;;17.88;51.87
60087;BME280;45960;53.630;55.972;2023-08-30T05:30:35;98590.41;;;18.00;51.74
60087;BME280;45960;53.630;55.972;2023-08-30T05:32:06;98582.56;;;18.05;51.31
60087;BME280;45960;53.630;55.972;2023-08-30T05:33:45;98590.19;;;18.17;50.92
60087;BME280;45960;53.630;55.972;2023-08-30T05:35:23;98591.66;;;18.19;50.80
60087;BME280;45960;53.630;55.972;2023-08-30T05:37:15;98590.56;;;18.14;50.63
60087;BME280;45960;53.630;55.972;2023-08-30T05:38:49;98594.69;;;18.09;50.87
60087;BME280;45960;53.630;55.972;2023-08-30T05:40:41;98595.06;;;18.06;51.09
60087;BME280;45960;53.630;55.972;2023-08-30T05:42:04;98593.75;;;18.02;51.21
60087;BME280;45960;53.630;55.972;2023-08-30T05:43:24;98592.09;;;18.01;51.34
60087;BME280;45960;53.630;55.972;2023-08-30T05:44:43;98597.13;;;18.04;51.13
60087;BME280;45960;53.630;55.972;2023-08-30T05:46:03;98595.16;;;18.13;51.22
60087;BME280;45960;53.630;55.972;2023-08-30T05:47:23;98596.19;;;18.33;50.84
60087;BME280;45960;53.630;55.972;2023-08-30T05:48:43;98591.38;;;18.50;50.49
60087;BME280;45960;53.630;55.972;2023-08-30T05:50:03;98586.50;;;18.61;50.41
60087;BME280;45960;53.630;55.972;2023-08-30T05:51:22;98592.31;;;18.79;50.26
60087;BME280;45960;53.630;55.972;2023-08-30T05:52:42;98580.09;;;18.83;49.77
60087;BME280;45960;53.630;55.972;2023-08-30T05:54:04;98582.78;;;18.83;49.67
60087;BME280;45960;53.630;55.972;2023-08-30T05:55:23;98589.63;;;18.79;49.63
60087;BME280;45960;53.630;55.972;2023-08-30T05:57:01;98586.78;;;18.87;49.58
60087;BME280;45960;53.630;55.972;2023-08-30T05:58:21;98582.78;;;19.05;49.27
60087;BME280;45960;53.630;55.972;2023-08-30T05:59:41;98571.59;;;19.14;48.65
60087;BME280;45960;53.630;55.972;2023-08-30T06:01:00;98586.63;;;19.17;48.79
60087;BME280;45960;53.630;55.972;2023-08-30T06:02:20;98585.00;;;19.22;48.73
60087;BME280;45960;53.630;55.972;2023-08-30T06:03:40;98584.16;;;19.22;48.46
60087;BME280;45960;53.630;55.972;2023-08-30T06:04:59;98577.06;;;19.21;48.76
60087;BME280;45960;53.630;55.972;2023-08-30T06:06:19;98585.44;;;19.26;48.72
60087;BME280;45960;53.630;55.972;2023-08-30T06:07:38;98586.78;;;19.43;48.39
60087;BME280;45960;53.630;55.972;2023-08-30T06:08:57;98584.81;;;19.59;47.81
60087;BME280;45960;53.630;55.972;2023-08-30T06:10:17;98583.22;;;19.71;47.89
60087;BME280;45960;53.630;55.972;2023-08-30T06:11:39;98580.38;;;19.79;47.66
60087;BME280;45960;53.630;55.972;2023-08-30T06:12:58;98584.97;;;19.85;47.27
60087;BME280;45960;53.630;55.972;2023-08-30T06:14:18;98579.59;;;19.92;47.15
60087;BME280;45960;53.630;55.972;2023-08-30T06:15:37;98574.19;;;19.99;47.08
60087;BME280;45960;53.630;55.972;2023-08-30T06:16:58;98584.28;;;20.18;46.63
60087;BME280;45960;53.630;55.972;2023-08-30T06:18:18;98583.88;;;20.21;46.81
60087;BME280;45960;53.630;55.972;2023-08-30T06:19:38;98591.78;;;20.16;46.74
60087;BME280;45960;53.630;55.972;2023-08-30T06:20:58;98581.69;;;19.97;47.01
60087;BME280;45960;53.630;55.972;2023-08-30T06:22:18;98595.59;;;19.80;47.29
60087;BME280;45960;53.630;55.972;2023-08-30T06:23:38;98584.81;;;19.59;47.66
60087;BME280;45960;53.630;55.972;2023-08-30T06:24:57;98579.31;;;19.45;47.81
60087;BME280;45960;53.630;55.972;2023-08-30T06:26:17;98578.44;;;19.38;47.79
60087;BME280;45960;53.630;55.972;2023-08-30T06:27:55;98586.72;;;19.30;48.43
60087;BME280;45960;53.630;55.972;2023-08-30T06:29:16;98584.56;;;19.19;48.77
60087;BME280;45960;53.630;55.972;2023-08-30T06:30:35;98567.81;;;19.09;48.77
60087;BME280;45960;53.630;55.972;2023-08-30T06:31:55;98577.19;;;19.13;48.90
60087;BME280;45960;53.630;55.972;2023-08-30T06:33:14;98577.84;;;19.15;48.71
60087;BME280;45960;53.630;55.972;2023-08-30T06:34:34;98588.28;;;19.18;49.00
60087;BME280;45960;53.630;55.972;2023-08-30T06:35:54;98583.25;;;19.15;48.92
60087;BME280;45960;53.630;55.972;2023-08-30T06:37:15;98582.00;;;19.11;48.65
60087;BME280;45960;53.630;55.972;2023-08-30T06:38:35;98583.25;;;19.15;48.67
60087;BME280;45960;53.630;55.972;2023-08-30T06:39:54;98586.31;;;19.33;48.39
60087;BME280;45960;53.630;55.972;2023-08-30T06:41:14;98581.84;;;19.54;47.72
60087;BME280;45960;53.630;55.972;2023-08-30T06:42:34;98578.72;;;19.85;46.90
60087;BME280;45960;53.630;55.972;2023-08-30T06:43:54;98582.63;;;20.24;46.06
60087;BME280;45960;53.630;55.972;2023-08-30T06:45:13;98580.19;;;20.42;45.67
60087;BME280;45960;53.630;55.972;2023-08-30T06:46:33;98585.72;;;20.75;45.30
60087;BME280;45960;53.630;55.972;2023-08-30T06:47:52;98575.88;;;21.28;44.54
60087;BME280;45960;53.630;55.972;2023-08-30T06:49:11;98574.81;;;21.68;43.52
60087;BME280;45960;53.630;55.972;2023-08-30T06:50:31;98571.41;;;22.70;41.60
60087;BME280;45960;53.630;55.972;2023-08-30T06:51:50;98577.25;;;23.30;40.43
60087;BME280;45960;53.630;55.972;2023-08-30T06:53:10;98574.53;;;23.30;40.06
60087;BME280;45960;53.630;55.972;2023-08-30T06:54:32;98582.41;;;23.13;39.89
60087;BME280;45960;53.630;55.972;2023-08-30T06:56:01;98587.56;;;22.96;40.36
60087;BME280;45960;53.630;55.972;2023-08-30T06:57:21;98583.44;;;22.87;41.06
60087;BME280;45960;53.630;55.972;2023-08-30T06:58:41;98583.50;;;22.74;41.12
60087;BME280;45960;53.630;55.972;2023-08-30T07:00:01;98582.38;;;22.56;41.33
60087;BME280;45960;53.630;55.972;2023-08-30T07:01:26;98584.13;;;22.44;41.62
60087;BME280;45960;53.630;55.972;2023-08-30T07:02:45;98581.69;;;22.36;41.68
60087;BME280;45960;53.630;55.972;2023-08-30T07:04:05;98571.84;;;22.35;41.57
60087;BME280;45960;53.630;55.972;2023-08-30T07:05:24;98574.84;;;22.59;41.51
60087;BME280;45960;53.630;55.972;2023-08-30T07:06:44;98579.22;;;22.91;41.36
60087;BME280;45960;53.630;55.972;2023-08-30T07:08:05;98584.13;;;23.08;40.81
60087;BME280;45960;53.630;55.972;2023-08-30T07:09:24;98579.91;;;23.12;40.77
60087;BME280;45960;53.630;55.972;2023-08-30T07:10:49;98567.78;;;23.08;40.52